Time;durP1;ratioP1;P1;durP2;ratioP2;P2;SDS_P1;SDS_P2;PMS_P1;PMS_P2;Temp;Humidity;BMP_temperature;BMP_pressure;BME280_temperature;BME280_humidity;BME280_pressure;Samples;Min_cycle;Max_cycle;Signal;HPM_P1;HPM_P2
2022/03/15 00:00:09;;;;;;;157.80;35.07;;;;;;;;;;5026094;28;20104;-66
2022/03/15 00:02:34;;;;;;;165.90;35.00;;;;;;;;;;5022726;28;20413;-66
2022/03/15 00:04:59;;;;;;;164.60;35.27;;;;;;;;;;5023362;28;20049;-66
2022/03/15 00:07:25;;;;;;;136.20;32.30;;;;;;;;;;5021602;28;20041;-66
2022/03/15 00:09:50;;;;;;;160.67;32.40;;;;;;;;;;5030771;28;20076;-66
2022/03/15 00:12:16;;;;;;;131.83;29.90;;;;;;;;;;5029788;28;20099;-66
2022/03/15 00:14:42;;;;;;;118.87;28.40;;;;;;;;;;5031867;28;20060;-66
2022/03/15 00:17:08;;;;;;;103.03;26.67;;;;;;;;;;5031283;28;20037;-66
2022/03/15 00:19:33;;;;;;;77.67;23.57;;;;;;;;;;5035826;28;20156;-66
2022/03/15 00:21:58;;;;;;;77.23;23.43;;;;;;;;;;5041038;28;20469;-66
2022/03/15 00:24:24;;;;;;;71.37;22.40;;;;;;;;;;5038447;28;20021;-67
2022/03/15 00:26:50;;;;;;;93.53;24.77;;;;;;;;;;5032128;28;20021;-66
2022/03/15 00:29:17;;;;;;;96.30;24.83;;;;;;;;;;5040066;28;20094;-66
2022/03/15 00:31:44;;;;;;;95.17;25.47;;;;;;;;;;5025497;28;20059;-66
2022/03/15 00:34:09;;;;;;;90.57;25.00;;;;;;;;;;5040125;28;20191;-66
2022/03/15 00:36:35;;;;;;;102.87;25.47;;;;;;;;;;5037778;28;20160;-66
2022/03/15 00:39:00;;;;;;;90.43;25.43;;;;;;;;;;5035582;28;20051;-66
2022/03/15 00:41:25;;;;;;;71.30;21.90;;;;;;;;;;5039586;28;20262;-66
2022/03/15 00:43:51;;;;;;;86.17;24.47;;;;;;;;;;5035051;28;20106;-66
2022/03/15 00:46:16;;;;;;;115.50;25.50;;;;;;;;;;5031308;28;20021;-66
2022/03/15 00:48:41;;;;;;;102.70;22.90;;;;;;;;;;5035790;28;20068;-66
2022/03/15 00:51:06;;;;;;;139.30;23.23;;;;;;;;;;5058573;28;20020;-66
2022/03/15 00:53:32;;;;;;;155.17;23.57;;;;;;;;;;5046317;28;20469;-66
2022/03/15 00:55:57;;;;;;;146.67;22.33;;;;;;;;;;5040819;28;20378;-66
2022/03/15 00:58:22;;;;;;;91.47;19.33;;;;;;;;;;5037084;28;20241;-66
2022/03/15 01:00:48;;;;;;;76.63;17.77;;;;;;;;;;5040325;28;20563;-66
2022/03/15 01:03:13;;;;;;;203.43;23.13;;;;;;;;;;5039929;28;20029;-66
2022/03/15 01:05:38;;;;;;;200.87;23.23;;;;;;;;;;5040962;28;20102;-68
2022/03/15 01:08:04;;;;;;;152.07;24.00;;;;;;;;;;5033175;28;20103;-68
2022/03/15 01:10:29;;;;;;;139.03;24.33;;;;;;;;;;5038627;28;20147;-68
2022/03/15 01:12:54;;;;;;;106.73;23.87;;;;;;;;;;5030943;28;20144;-68
2022/03/15 01:15:20;;;;;;;96.60;26.27;;;;;;;;;;5034750;28;20044;-68
2022/03/15 01:17:46;;;;;;;120.33;27.57;;;;;;;;;;5031318;28;20029;-68
2022/03/15 01:20:11;;;;;;;265.30;32.07;;;;;;;;;;5033574;28;20546;-68
2022/03/15 01:22:36;;;;;;;131.67;28.30;;;;;;;;;;5037919;28;20021;-69
2022/03/15 01:25:02;;;;;;;112.77;28.77;;;;;;;;;;5035809;28;20037;-68
2022/03/15 01:27:27;;;;;;;159.00;29.63;;;;;;;;;;5039311;28;20033;-68
2022/03/15 01:29:53;;;;;;;117.47;26.63;;;;;;;;;;5039707;28;20090;-68
2022/03/15 01:32:20;;;;;;;119.60;27.47;;;;;;;;;;5023164;28;20112;-68
2022/03/15 01:34:45;;;;;;;152.80;27.27;;;;;;;;;;5030048;28;20523;-68
2022/03/15 01:37:11;;;;;;;146.50;26.70;;;;;;;;;;5037549;28;20064;-68
2022/03/15 01:39:37;;;;;;;184.13;26.03;;;;;;;;;;5038393;28;20024;-68
2022/03/15 01:42:02;;;;;;;167.93;26.43;;;;;;;;;;5039023;28;20297;-68
2022/03/15 01:44:30;;;;;;;277.53;29.17;;;;;;;;;;5027841;28;20421;-68
2022/03/15 01:46:55;;;;;;;295.93;32.50;;;;;;;;;;5020245;28;20032;-68
2022/03/15 01:49:21;;;;;;;195.77;27.87;;;;;;;;;;5025887;28;20041;-68
2022/03/15 01:51:47;;;;;;;221.57;29.90;;;;;;;;;;5026268;28;20104;-68
2022/03/15 01:54:13;;;;;;;192.57;28.60;;;;;;;;;;5024946;28;20076;-68
2022/03/15 01:56:41;;;;;;;196.03;28.17;;;;;;;;;;5028668;28;20458;-68
2022/03/15 01:59:14;;;;;;;137.30;26.30;;;;;;;;;;5026021;28;20029;-68
2022/03/15 02:01:41;;;;;;;122.37;25.73;;;;;;;;;;5033447;28;20020;-68
2022/03/15 02:04:06;;;;;;;93.47;25.13;;;;;;;;;;5034424;28;20279;-68
2022/03/15 02:06:34;;;;;;;119.60;26.73;;;;;;;;;;5020908;28;20489;-68
2022/03/15 02:09:06;;;;;;;129.97;28.60;;;;;;;;;;5024178;28;20033;-68
2022/03/15 02:11:34;;;;;;;152.68;29.30;;;;;;;;;;5037230;28;20199;-68
2022/03/15 02:13:59;;;;;;;133.37;29.20;;;;;;;;;;5026503;28;20271;-68
2022/03/15 02:16:24;;;;;;;155.63;30.00;;;;;;;;;;5038018;28;20447;-68
2022/03/15 02:18:50;;;;;;;164.20;30.90;;;;;;;;;;5038632;28;20029;-68
2022/03/15 02:21:15;;;;;;;104.57;26.73;;;;;;;;;;5039310;28;20035;-68
2022/03/15 02:23:40;;;;;;;95.83;24.80;;;;;;;;;;5036330;28;20017;-68
2022/03/15 02:26:06;;;;;;;82.57;22.97;;;;;;;;;;5038839;28;20036;-69
2022/03/15 02:28:31;;;;;;;96.13;23.60;;;;;;;;;;5021000;28;20206;-68
2022/03/15 02:30:56;;;;;;;141.60;23.30;;;;;;;;;;5036542;28;20114;-68
2022/03/15 02:33:22;;;;;;;126.97;24.73;;;;;;;;;;5023559;28;20255;-68
2022/03/15 02:35:48;;;;;;;156.43;24.33;;;;;;;;;;5036799;28;20118;-68
2022/03/15 02:38:13;;;;;;;149.73;26.57;;;;;;;;;;5028994;28;20052;-68
2022/03/15 02:40:38;;;;;;;231.83;27.87;;;;;;;;;;5038742;28;20035;-68
2022/03/15 02:43:03;;;;;;;148.67;30.40;;;;;;;;;;5023469;28;20034;-68
2022/03/15 02:45:29;;;;;;;186.83;31.70;;;;;;;;;;5034090;28;20622;-68
2022/03/15 02:47:54;;;;;;;192.87;31.97;;;;;;;;;;5022287;28;20112;-68
2022/03/15 02:50:19;;;;;;;143.27;31.33;;;;;;;;;;5032128;28;20029;-68
2022/03/15 02:52:44;;;;;;;118.60;28.77;;;;;;;;;;5027927;28;20029;-68
2022/03/15 02:55:10;;;;;;;116.67;29.33;;;;;;;;;;5034276;28;20265;-68
2022/03/15 02:57:35;;;;;;;124.60;30.53;;;;;;;;;;5038826;28;20033;-68
2022/03/15 03:00:01;;;;;;;117.67;28.53;;;;;;;;;;5027938;28;20056;-68
2022/03/15 03:02:27;;;;;;;116.07;30.77;;;;;;;;;;5035186;28;20082;-68
2022/03/15 03:04:52;;;;;;;122.73;29.10;;;;;;;;;;5042007;28;20048;-68
2022/03/15 03:07:19;;;;;;;119.43;30.17;;;;;;;;;;5035311;28;20028;-68
2022/03/15 03:09:44;;;;;;;248.60;35.13;;;;;;;;;;5033504;28;20055;-68
2022/03/15 03:12:10;;;;;;;189.63;33.27;;;;;;;;;;5042549;28;20501;-68
2022/03/15 03:14:35;;;;;;;109.93;28.63;;;;;;;;;;5041275;28;20033;-68
2022/03/15 03:17:02;;;;;;;107.43;29.37;;;;;;;;;;5042602;28;20116;-68
2022/03/15 03:19:27;;;;;;;136.10;30.73;;;;;;;;;;5041867;28;20077;-68
2022/03/15 03:21:52;;;;;;;123.37;29.30;;;;;;;;;;5034428;28;20029;-68
2022/03/15 03:24:21;;;;;;;117.60;30.27;;;;;;;;;;5028869;28;20037;-68
2022/03/15 03:26:46;;;;;;;127.17;30.60;;;;;;;;;;5034117;28;20022;-68
2022/03/15 03:29:11;;;;;;;120.90;30.27;;;;;;;;;;5032522;28;20495;-68
2022/03/15 03:31:37;;;;;;;107.03;29.77;;;;;;;;;;5039911;28;20025;-68
2022/03/15 03:34:03;;;;;;;101.43;26.83;;;;;;;;;;5025945;28;20398;-66
2022/03/15 03:36:31;;;;;;;104.73;27.63;;;;;;;;;;5038039;28;20029;-66
2022/03/15 03:38:56;;;;;;;92.60;26.40;;;;;;;;;;5041666;28;20151;-66
2022/03/15 03:41:22;;;;;;;83.67;24.17;;;;;;;;;;5037353;28;20254;-66
2022/03/15 03:43:47;;;;;;;192.27;29.20;;;;;;;;;;5041876;28;20024;-66
2022/03/15 03:46:13;;;;;;;211.63;29.80;;;;;;;;;;5041006;28;20317;-66
2022/03/15 03:48:38;;;;;;;292.57;33.50;;;;;;;;;;5041389;28;20167;-66
2022/03/15 03:51:04;;;;;;;176.37;30.20;;;;;;;;;;5034918;28;20060;-66
2022/03/15 03:53:29;;;;;;;169.63;33.23;;;;;;;;;;5036557;28;20050;-66
2022/03/15 03:55:54;;;;;;;189.70;36.73;;;;;;;;;;5035568;28;20482;-66
2022/03/15 03:58:19;;;;;;;170.70;33.63;;;;;;;;;;5022284;28;20032;-66
2022/03/15 04:00:44;;;;;;;162.07;34.93;;;;;;;;;;5038745;28;20129;-66
2022/03/15 04:03:13;;;;;;;140.10;33.00;;;;;;;;;;5041867;28;20566;-66
2022/03/15 04:05:40;;;;;;;133.17;32.40;;;;;;;;;;5040077;28;20045;-66
2022/03/15 04:08:06;;;;;;;148.97;35.13;;;;;;;;;;5031449;28;20586;-66
2022/03/15 04:10:32;;;;;;;143.57;34.07;;;;;;;;;;5036646;28;20076;-66
2022/03/15 04:12:57;;;;;;;144.20;35.10;;;;;;;;;;5038230;28;20512;-66
2022/03/15 04:15:23;;;;;;;157.97;35.90;;;;;;;;;;5040631;28;20094;-66
2022/03/15 04:17:49;;;;;;;145.00;35.33;;;;;;;;;;5041350;28;20076;-66
2022/03/15 04:20:14;;;;;;;183.60;39.30;;;;;;;;;;5040203;28;20322;-66
2022/03/15 04:22:40;;;;;;;152.17;38.03;;;;;;;;;;5025192;28;20051;-66
2022/03/15 04:25:05;;;;;;;150.50;36.60;;;;;;;;;;5035414;28;20024;-66
2022/03/15 04:27:31;;;;;;;138.77;33.93;;;;;;;;;;5037173;28;20029;-66
2022/03/15 04:29:57;;;;;;;120.23;30.13;;;;;;;;;;5038150;28;20145;-66
2022/03/15 04:32:22;;;;;;;116.40;29.50;;;;;;;;;;5025278;28;20083;-66
2022/03/15 04:34:48;;;;;;;102.67;26.73;;;;;;;;;;5035524;28;20274;-66
2022/03/15 04:37:14;;;;;;;107.30;27.90;;;;;;;;;;5031302;28;20033;-66
2022/03/15 04:39:39;;;;;;;164.17;29.87;;;;;;;;;;5032577;28;20021;-66
2022/03/15 04:42:05;;;;;;;108.77;28.53;;;;;;;;;;5021454;28;20473;-66
2022/03/15 04:44:30;;;;;;;156.43;32.70;;;;;;;;;;5030391;28;20090;-66
2022/03/15 04:46:55;;;;;;;197.57;37.63;;;;;;;;;;5040949;28;20056;-66
2022/03/15 04:49:21;;;;;;;169.27;39.60;;;;;;;;;;5037424;28;20273;-66
2022/03/15 04:51:46;;;;;;;240.03;41.47;;;;;;;;;;5026697;28;20033;-66
2022/03/15 04:54:12;;;;;;;245.40;46.57;;;;;;;;;;5026177;28;20123;-66
2022/03/15 04:56:38;;;;;;;161.80;41.23;;;;;;;;;;5036360;28;20488;-66
2022/03/15 04:59:03;;;;;;;151.57;37.57;;;;;;;;;;5027502;28;20381;-66
2022/03/15 05:01:28;;;;;;;145.40;35.00;;;;;;;;;;5038096;28;20032;-66
2022/03/15 05:03:53;;;;;;;160.40;36.57;;;;;;;;;;5040011;28;20159;-66
2022/03/15 05:06:19;;;;;;;172.73;38.73;;;;;;;;;;5036704;28;20311;-66
2022/03/15 05:08:44;;;;;;;170.63;38.70;;;;;;;;;;5039542;28;20417;-66
2022/03/15 05:11:10;;;;;;;167.00;37.17;;;;;;;;;;5040077;28;20033;-66
2022/03/15 05:13:40;;;;;;;153.50;38.17;;;;;;;;;;5038625;28;20489;-66
2022/03/15 05:16:07;;;;;;;148.10;35.60;;;;;;;;;;5040440;28;20369;-66
2022/03/15 05:18:34;;;;;;;127.50;34.53;;;;;;;;;;5039332;28;20105;-66
2022/03/15 05:20:59;;;;;;;124.40;34.57;;;;;;;;;;5031830;28;20032;-66
2022/03/15 05:23:25;;;;;;;118.93;29.50;;;;;;;;;;5038616;28;20029;-66
2022/03/15 05:25:50;;;;;;;120.53;29.77;;;;;;;;;;5039430;28;20470;-66
2022/03/15 05:28:16;;;;;;;107.10;27.07;;;;;;;;;;5032639;28;20036;-66
2022/03/15 05:30:41;;;;;;;106.13;29.27;;;;;;;;;;5038819;28;20025;-66
2022/03/15 05:33:06;;;;;;;102.53;28.73;;;;;;;;;;5035842;28;20681;-66
2022/03/15 05:35:31;;;;;;;120.37;30.07;;;;;;;;;;5037311;28;21849;-66
2022/03/15 05:37:57;;;;;;;118.73;27.20;;;;;;;;;;5042415;28;20423;-66
2022/03/15 05:40:22;;;;;;;147.20;30.83;;;;;;;;;;5034825;28;20067;-66
2022/03/15 05:42:47;;;;;;;160.37;29.43;;;;;;;;;;5035759;28;20032;-66
2022/03/15 05:45:13;;;;;;;154.30;30.00;;;;;;;;;;5028009;28;20211;-66
2022/03/15 05:47:38;;;;;;;171.60;31.63;;;;;;;;;;5026892;28;20035;-66
2022/03/15 05:50:04;;;;;;;202.50;34.93;;;;;;;;;;5030956;28;20498;-66
2022/03/15 05:52:30;;;;;;;201.67;37.97;;;;;;;;;;5020710;28;20108;-66
2022/03/15 05:54:55;;;;;;;198.97;38.63;;;;;;;;;;5034685;28;20570;-66
2022/03/15 05:57:20;;;;;;;178.70;35.73;;;;;;;;;;5032708;28;20037;-66
2022/03/15 05:59:45;;;;;;;178.03;38.70;;;;;;;;;;5032678;28;20028;-66
2022/03/15 06:02:10;;;;;;;189.53;37.83;;;;;;;;;;5031064;28;20072;-66
2022/03/15 06:04:36;;;;;;;205.47;44.00;;;;;;;;;;5038148;28;20049;-66
2022/03/15 06:07:01;;;;;;;620.20;214.67;;;;;;;;;;5033871;28;20036;-66
2022/03/15 06:09:27;;;;;;;268.23;57.67;;;;;;;;;;5033158;28;20021;-66
2022/03/15 06:11:52;;;;;;;285.33;69.87;;;;;;;;;;5031304;28;20236;-66
2022/03/15 06:14:21;;;;;;;270.17;61.83;;;;;;;;;;5035970;28;20095;-66
2022/03/15 06:16:46;;;;;;;255.03;56.57;;;;;;;;;;5028404;28;20048;-66
2022/03/15 06:19:12;;;;;;;222.10;47.60;;;;;;;;;;5039346;28;20122;-66
2022/03/15 06:21:38;;;;;;;225.83;47.60;;;;;;;;;;5034908;28;20454;-66
2022/03/15 06:24:03;;;;;;;210.03;47.50;;;;;;;;;;5032954;28;20176;-66
2022/03/15 06:26:29;;;;;;;186.63;44.77;;;;;;;;;;5027192;28;20305;-66
2022/03/15 06:28:54;;;;;;;194.00;44.33;;;;;;;;;;5036981;28;20036;-66
2022/03/15 06:31:20;;;;;;;219.93;50.50;;;;;;;;;;5039500;28;20025;-66
2022/03/15 06:33:46;;;;;;;208.57;44.90;;;;;;;;;;5038207;28;20296;-66
2022/03/15 06:36:15;;;;;;;225.40;45.87;;;;;;;;;;5033361;28;20039;-66
2022/03/15 06:38:41;;;;;;;214.40;44.37;;;;;;;;;;5028505;28;20508;-66
2022/03/15 06:41:07;;;;;;;198.33;45.13;;;;;;;;;;5027064;28;20055;-66
2022/03/15 06:43:33;;;;;;;236.67;48.57;;;;;;;;;;5037222;28;20155;-66
2022/03/15 06:45:58;;;;;;;247.93;53.23;;;;;;;;;;5032692;28;20203;-66
2022/03/15 06:48:23;;;;;;;227.93;48.67;;;;;;;;;;5032593;28;20021;-66
2022/03/15 06:50:48;;;;;;;239.30;51.30;;;;;;;;;;5028787;28;20113;-66
2022/03/15 06:53:14;;;;;;;221.13;51.90;;;;;;;;;;5025913;28;20043;-66
2022/03/15 06:55:39;;;;;;;237.47;51.17;;;;;;;;;;5031218;28;20025;-66
2022/03/15 06:58:04;;;;;;;241.30;51.67;;;;;;;;;;5028687;28;20033;-66
2022/03/15 07:00:29;;;;;;;221.57;51.90;;;;;;;;;;5037916;28;20025;-66
2022/03/15 07:02:55;;;;;;;223.77;51.03;;;;;;;;;;5038663;28;20305;-66
2022/03/15 07:05:20;;;;;;;228.70;53.23;;;;;;;;;;5029433;28;20065;-66
2022/03/15 07:07:45;;;;;;;231.53;52.73;;;;;;;;;;5032763;28;20059;-66
2022/03/15 07:10:12;;;;;;;237.27;56.27;;;;;;;;;;5024766;28;20116;-66
2022/03/15 07:12:37;;;;;;;211.93;53.13;;;;;;;;;;5019141;28;20530;-66
2022/03/15 07:15:03;;;;;;;209.67;49.90;;;;;;;;;;5030281;28;20116;-66
2022/03/15 07:17:30;;;;;;;207.07;49.30;;;;;;;;;;5032363;28;21447;-66
2022/03/15 07:19:56;;;;;;;211.53;48.93;;;;;;;;;;5036096;28;20033;-66
2022/03/15 07:22:22;;;;;;;203.50;49.53;;;;;;;;;;5027139;28;20021;-66
2022/03/15 07:24:48;;;;;;;191.77;46.93;;;;;;;;;;5032211;28;20055;-66
2022/03/15 07:27:14;;;;;;;212.80;50.13;;;;;;;;;;5037730;28;20021;-66
2022/03/15 07:29:39;;;;;;;196.30;49.03;;;;;;;;;;5037995;28;20122;-66
2022/03/15 07:32:04;;;;;;;201.40;48.17;;;;;;;;;;5038044;28;20538;-66
2022/03/15 07:34:30;;;;;;;195.50;46.20;;;;;;;;;;5034957;28;20404;-67
2022/03/15 07:36:55;;;;;;;203.57;48.47;;;;;;;;;;5035560;28;20009;-66
2022/03/15 07:39:21;;;;;;;192.83;47.10;;;;;;;;;;5037982;28;20040;-66
2022/03/15 07:41:46;;;;;;;194.47;48.30;;;;;;;;;;5038168;28;20884;-66
2022/03/15 07:44:12;;;;;;;193.40;47.93;;;;;;;;;;5037752;28;20029;-66
2022/03/15 07:46:37;;;;;;;189.97;47.33;;;;;;;;;;5042120;28;20049;-66
2022/03/15 07:49:03;;;;;;;202.63;47.77;;;;;;;;;;5041818;28;20057;-67
2022/03/15 07:51:28;;;;;;;194.83;47.67;;;;;;;;;;5042062;28;20024;-66
2022/03/15 07:53:54;;;;;;;172.80;46.73;;;;;;;;;;5041636;28;20242;-66
2022/03/15 07:56:19;;;;;;;184.63;47.17;;;;;;;;;;5042081;28;20492;-66
2022/03/15 07:58:45;;;;;;;193.20;48.40;;;;;;;;;;5038176;28;20047;-66
2022/03/15 08:01:10;;;;;;;175.83;46.73;;;;;;;;;;5030284;28;20071;-66
2022/03/15 08:03:35;;;;;;;174.90;47.27;;;;;;;;;;5021722;28;20057;-66
2022/03/15 08:06:00;;;;;;;172.73;46.77;;;;;;;;;;5041921;28;20266;-66
2022/03/15 08:08:26;;;;;;;184.23;48.83;;;;;;;;;;5041713;28;20044;-66
2022/03/15 08:10:51;;;;;;;161.90;48.13;;;;;;;;;;5041025;28;20037;-66
2022/03/15 08:13:16;;;;;;;162.00;46.97;;;;;;;;;;5041984;28;20029;-66
2022/03/15 08:15:41;;;;;;;162.60;46.30;;;;;;;;;;5041250;28;20345;-66
2022/03/15 08:18:07;;;;;;;166.20;45.67;;;;;;;;;;5033920;28;20041;-66
2022/03/15 08:20:32;;;;;;;165.87;47.13;;;;;;;;;;5041287;28;20262;-66
2022/03/15 08:22:58;;;;;;;173.17;45.90;;;;;;;;;;5041604;28;20032;-66
2022/03/15 08:25:23;;;;;;;161.53;48.57;;;;;;;;;;5041323;28;20028;-67
2022/03/15 08:27:48;;;;;;;165.43;47.77;;;;;;;;;;5040834;28;20149;-66
2022/03/15 08:30:14;;;;;;;158.93;46.87;;;;;;;;;;5040909;28;20181;-66
2022/03/15 08:32:39;;;;;;;146.67;47.50;;;;;;;;;;5041750;28;20405;-66
2022/03/15 08:35:04;;;;;;;151.93;46.83;;;;;;;;;;5041154;28;20017;-66
2022/03/15 08:37:30;;;;;;;160.50;48.03;;;;;;;;;;5041708;28;20032;-67
2022/03/15 08:39:55;;;;;;;163.60;49.17;;;;;;;;;;5033000;28;20082;-66
2022/03/15 08:42:21;;;;;;;152.83;47.93;;;;;;;;;;5041410;28;20077;-66
2022/03/15 08:44:46;;;;;;;156.03;49.67;;;;;;;;;;5040645;28;20400;-66
2022/03/15 08:47:12;;;;;;;159.83;46.33;;;;;;;;;;5041293;28;20237;-67
2022/03/15 08:49:38;;;;;;;150.77;46.53;;;;;;;;;;5040745;28;20020;-67
2022/03/15 08:52:03;;;;;;;145.13;45.70;;;;;;;;;;5041080;28;20202;-66
2022/03/15 08:54:30;;;;;;;132.97;44.93;;;;;;;;;;5040523;28;20149;-66
2022/03/15 08:56:56;;;;;;;139.07;45.67;;;;;;;;;;5038760;28;20278;-66
2022/03/15 08:59:21;;;;;;;132.10;40.37;;;;;;;;;;5037941;28;20056;-67
2022/03/15 09:01:46;;;;;;;123.13;41.93;;;;;;;;;;5040746;28;20040;-67
2022/03/15 09:04:12;;;;;;;118.40;41.43;;;;;;;;;;5040321;28;20044;-66
2022/03/15 09:06:37;;;;;;;113.80;40.83;;;;;;;;;;5040229;28;20033;-67
2022/03/15 09:09:03;;;;;;;113.03;40.57;;;;;;;;;;5035809;28;20116;-66
2022/03/15 09:11:29;;;;;;;107.37;39.33;;;;;;;;;;5028093;28;20108;-67
2022/03/15 09:13:54;;;;;;;104.97;38.10;;;;;;;;;;5023399;28;20261;-67
2022/03/15 09:16:20;;;;;;;92.90;36.87;;;;;;;;;;5040566;28;20557;-67
2022/03/15 09:18:50;;;;;;;92.90;36.60;;;;;;;;;;5039927;28;20049;-67
2022/03/15 09:21:15;;;;;;;76.80;33.23;;;;;;;;;;5039096;28;20021;-67
2022/03/15 09:23:41;;;;;;;78.00;32.83;;;;;;;;;;5040166;28;20079;-67
2022/03/15 09:26:06;;;;;;;78.30;32.73;;;;;;;;;;5037344;28;20098;-67
2022/03/15 09:28:31;;;;;;;85.27;35.17;;;;;;;;;;5039881;28;20231;-67
2022/03/15 09:30:56;;;;;;;83.10;36.73;;;;;;;;;;5037093;28;20469;-67
2022/03/15 09:33:23;;;;;;;78.10;35.60;;;;;;;;;;5040383;28;20033;-67
2022/03/15 09:35:48;;;;;;;84.97;35.53;;;;;;;;;;5040171;28;20028;-67
2022/03/15 09:38:14;;;;;;;68.10;32.77;;;;;;;;;;5039651;28;20029;-67
2022/03/15 09:40:39;;;;;;;64.30;31.00;;;;;;;;;;5039787;28;20017;-67
2022/03/15 09:43:07;;;;;;;63.90;31.37;;;;;;;;;;5039280;28;20619;-67
2022/03/15 09:45:34;;;;;;;73.53;32.63;;;;;;;;;;5035470;28;20112;-67
2022/03/15 09:48:03;;;;;;;64.70;31.87;;;;;;;;;;5039978;28;20033;-67
2022/03/15 09:50:29;;;;;;;61.20;31.60;;;;;;;;;;5039847;28;20025;-67
2022/03/15 09:52:56;;;;;;;58.67;29.30;;;;;;;;;;5035534;28;20594;-67
2022/03/15 09:55:22;;;;;;;57.77;29.23;;;;;;;;;;5039601;28;20508;-67
2022/03/15 09:57:47;;;;;;;54.70;29.70;;;;;;;;;;5039906;28;20028;-67
2022/03/15 10:00:16;;;;;;;55.33;29.13;;;;;;;;;;5039571;28;20457;-67
2022/03/15 10:02:42;;;;;;;56.33;27.77;;;;;;;;;;5039713;28;20032;-67
2022/03/15 10:05:08;;;;;;;53.67;25.67;;;;;;;;;;5039121;28;20114;-67
2022/03/15 10:07:35;;;;;;;48.17;26.03;;;;;;;;;;5039031;28;20025;-67
2022/03/15 10:10:01;;;;;;;52.50;26.90;;;;;;;;;;5039290;28;20216;-67
2022/03/15 10:12:26;;;;;;;45.23;26.13;;;;;;;;;;5040794;28;20028;-67
2022/03/15 10:14:52;;;;;;;44.43;24.07;;;;;;;;;;5039254;28;20501;-67
2022/03/15 10:17:17;;;;;;;49.00;23.33;;;;;;;;;;5038859;28;20029;-67
2022/03/15 10:19:53;;;;;;;47.07;23.70;;;;;;;;;;5038523;28;20033;-67
2022/03/15 10:22:22;;;;;;;42.53;23.43;;;;;;;;;;5038404;28;20597;-67
2022/03/15 10:24:47;;;;;;;43.53;24.60;;;;;;;;;;5039063;28;20278;-67
2022/03/15 10:27:14;;;;;;;47.57;21.53;;;;;;;;;;5039555;28;20021;-67
2022/03/15 10:29:40;;;;;;;43.27;21.30;;;;;;;;;;5038670;28;20053;-67
2022/03/15 10:32:05;;;;;;;38.57;22.00;;;;;;;;;;5038797;28;20048;-67
2022/03/15 10:34:30;;;;;;;38.93;20.53;;;;;;;;;;5038712;28;20441;-67
2022/03/15 10:36:56;;;;;;;37.37;21.43;;;;;;;;;;5035041;28;20506;-67
2022/03/15 10:39:22;;;;;;;38.13;20.93;;;;;;;;;;5033984;28;20409;-67
2022/03/15 10:41:52;;;;;;;41.33;20.60;;;;;;;;;;5038813;28;20017;-67
2022/03/15 10:44:22;;;;;;;34.37;19.87;;;;;;;;;;5038643;28;20325;-67
2022/03/15 10:47:06;;;;;;;40.77;19.13;;;;;;;;;;5039102;28;20609;-67
2022/03/15 10:49:33;;;;;;;32.10;18.03;;;;;;;;;;5038725;28;20036;-67
2022/03/15 10:51:58;;;;;;;32.50;18.53;;;;;;;;;;5038383;28;20191;-67
2022/03/15 10:54:25;;;;;;;36.10;19.83;;;;;;;;;;5038511;28;20198;-67
2022/03/15 10:56:51;;;;;;;33.73;17.20;;;;;;;;;;5038766;28;20036;-67
2022/03/15 10:59:16;;;;;;;34.60;17.03;;;;;;;;;;5038953;28;20029;-67
2022/03/15 11:01:42;;;;;;;33.17;18.23;;;;;;;;;;5035615;28;20102;-67
2022/03/15 11:04:08;;;;;;;32.90;18.90;;;;;;;;;;5038225;28;20406;-67
2022/03/15 11:06:37;;;;;;;36.33;19.00;;;;;;;;;;5035265;28;20237;-67
2022/03/15 11:09:14;;;;;;;34.50;17.57;;;;;;;;;;5022873;28;20240;-67
2022/03/15 11:11:40;;;;;;;30.17;17.57;;;;;;;;;;5039092;28;20067;-67
2022/03/15 11:14:06;;;;;;;35.60;19.20;;;;;;;;;;5038333;28;20048;-67
2022/03/15 11:16:34;;;;;;;38.53;21.67;;;;;;;;;;5038858;28;20025;-67
2022/03/15 11:19:01;;;;;;;34.87;20.60;;;;;;;;;;5038727;28;20060;-67
2022/03/15 11:21:27;;;;;;;35.33;19.70;;;;;;;;;;5042154;28;20457;-67
2022/03/15 11:23:54;;;;;;;37.70;19.57;;;;;;;;;;5039525;28;20028;-67
2022/03/15 11:26:22;;;;;;;35.13;19.73;;;;;;;;;;5042764;28;20501;-67
2022/03/15 11:28:47;;;;;;;34.67;18.47;;;;;;;;;;5042620;28;20040;-67
2022/03/15 11:31:16;;;;;;;35.87;18.57;;;;;;;;;;5042140;28;20424;-67
2022/03/15 11:33:44;;;;;;;32.17;17.90;;;;;;;;;;5042209;28;20051;-67
2022/03/15 11:36:10;;;;;;;36.07;18.70;;;;;;;;;;5042666;28;20641;-67
2022/03/15 11:38:37;;;;;;;32.73;18.30;;;;;;;;;;5035866;28;20177;-67
2022/03/15 11:41:02;;;;;;;32.57;18.27;;;;;;;;;;5042660;28;20401;-67
2022/03/15 11:43:40;;;;;;;30.07;17.47;;;;;;;;;;5042366;28;20108;-67
2022/03/15 11:46:17;;;;;;;34.30;19.10;;;;;;;;;;5042097;28;20187;-67
2022/03/15 11:48:42;;;;;;;40.50;19.73;;;;;;;;;;5042185;28;20029;-67
2022/03/15 11:51:13;;;;;;;37.07;19.30;;;;;;;;;;5042036;28;20048;-67
2022/03/15 11:53:53;;;;;;;33.07;18.77;;;;;;;;;;5042146;28;20546;-67
2022/03/15 11:56:18;;;;;;;34.83;19.40;;;;;;;;;;5042286;28;20031;-67
2022/03/15 11:58:53;;;;;;;36.37;19.83;;;;;;;;;;5041074;28;20033;-67
2022/03/15 12:01:20;;;;;;;39.13;20.73;;;;;;;;;;5042187;28;20028;-67
2022/03/15 12:03:47;;;;;;;38.33;19.93;;;;;;;;;;5041648;28;20644;-67
2022/03/15 12:06:22;;;;;;;33.97;18.73;;;;;;;;;;5042176;28;20249;-67
2022/03/15 12:08:52;;;;;;;38.47;18.87;;;;;;;;;;5041832;28;20083;-67
2022/03/15 12:11:25;;;;;;;36.63;18.67;;;;;;;;;;5042152;28;20501;-67
2022/03/15 12:13:50;;;;;;;41.60;19.10;;;;;;;;;;5041289;28;20021;-67
2022/03/15 12:16:18;;;;;;;34.63;18.33;;;;;;;;;;5041730;28;20033;-67
2022/03/15 12:18:48;;;;;;;39.50;19.87;;;;;;;;;;5041241;28;20083;-66
2022/03/15 12:21:14;;;;;;;38.27;20.23;;;;;;;;;;5044465;28;20111;-66
2022/03/15 12:23:46;;;;;;;34.67;19.23;;;;;;;;;;5043646;28;20152;-66
2022/03/15 12:26:18;;;;;;;36.13;20.05;;;;;;;;;;5043639;28;20529;-66
2022/03/15 12:28:54;;;;;;;33.50;19.10;;;;;;;;;;5043503;28;20386;-67
2022/03/15 12:31:20;;;;;;;32.73;18.37;;;;;;;;;;5044086;28;20056;-67
2022/03/15 12:33:59;;;;;;;33.50;18.70;;;;;;;;;;5042661;28;20492;-67
2022/03/15 12:36:35;;;;;;;44.00;19.10;;;;;;;;;;5042787;28;20246;-67
2022/03/15 12:39:06;;;;;;;33.63;19.00;;;;;;;;;;5033914;28;20518;-66
2022/03/15 12:41:32;;;;;;;;;;;;;;;;;;5042896;28;20021;-67
2022/03/15 12:43:57;;;;;;;35.57;19.30;;;;;;;;;;5042090;28;19911;-68
2022/03/15 12:46:30;;;;;;;35.47;18.50;;;;;;;;;;5043882;28;20555;-69
2022/03/15 12:48:55;;;;;;;33.57;19.03;;;;;;;;;;5041330;28;20668;-69
2022/03/15 12:51:20;;;;;;;34.00;18.93;;;;;;;;;;5041147;28;20061;-69
2022/03/15 12:53:48;;;;;;;40.80;20.43;;;;;;;;;;5040701;28;20025;-69
2022/03/15 12:56:14;;;;;;;37.07;19.23;;;;;;;;;;5040610;28;20029;-69
2022/03/15 12:58:40;;;;;;;33.40;18.27;;;;;;;;;;5041280;28;20493;-70
2022/03/15 13:01:09;;;;;;;34.90;18.40;;;;;;;;;;5040617;28;20108;-70
2022/03/15 13:03:35;;;;;;;37.42;20.02;;;;;;;;;;5039818;28;20064;-70
2022/03/15 13:06:01;;;;;;;35.45;19.25;;;;;;;;;;5040510;28;20028;-69
2022/03/15 13:08:26;;;;;;;36.10;18.75;;;;;;;;;;5037345;28;20489;-70
2022/03/15 13:10:53;;;;;;;34.95;19.15;;;;;;;;;;5040311;28;20021;-70
2022/03/15 13:13:18;;;;;;;35.95;19.15;;;;;;;;;;5040523;28;20515;-70
2022/03/15 13:15:50;;;;;;;36.65;18.67;;;;;;;;;;5036768;28;20111;-70
2022/03/15 13:18:19;;;;;;;38.28;18.55;;;;;;;;;;5039496;28;20029;-70
2022/03/15 13:20:44;;;;;;;31.15;18.08;;;;;;;;;;5037312;28;20165;-70
2022/03/15 13:23:10;;;;;;;36.13;19.38;;;;;;;;;;5040434;28;20083;-70
2022/03/15 13:25:48;;;;;;;34.47;19.02;;;;;;;;;;5040163;28;20524;-70
2022/03/15 13:28:22;;;;;;;34.15;17.67;;;;;;;;;;5039960;28;20025;-70
2022/03/15 13:30:49;;;;;;;35.42;19.38;;;;;;;;;;5040122;28;20028;-70
2022/03/15 13:33:26;;;;;;;35.92;18.88;;;;;;;;;;5040310;28;20029;-70
2022/03/15 13:35:58;;;;;;;35.53;18.45;;;;;;;;;;5039669;28;20032;-70
2022/03/15 13:38:25;;;;;;;45.60;19.17;;;;;;;;;;5036851;28;20017;-70
2022/03/15 13:40:51;;;;;;;36.42;17.75;;;;;;;;;;5039877;28;20548;-70
2022/03/15 13:43:20;;;;;;;31.52;17.30;;;;;;;;;;5039541;28;20021;-70
2022/03/15 13:45:46;;;;;;;31.90;17.77;;;;;;;;;;5039681;28;20079;-70
2022/03/15 13:48:12;;;;;;;33.03;18.27;;;;;;;;;;5040065;28;20389;-70
2022/03/15 13:50:38;;;;;;;38.55;18.95;;;;;;;;;;5039182;28;20128;-70
2022/03/15 13:53:17;;;;;;;36.55;18.20;;;;;;;;;;5039499;28;20479;-70
2022/03/15 13:55:42;;;;;;;34.30;17.90;;;;;;;;;;5039493;28;20397;-70
2022/03/15 13:58:08;;;;;;;35.33;19.25;;;;;;;;;;5021753;28;20210;-70
2022/03/15 14:00:34;;;;;;;31.88;16.73;;;;;;;;;;5039357;28;20028;-70
2022/03/15 14:03:05;;;;;;;34.05;17.92;;;;;;;;;;5039494;28;20128;-70